createdAt,value
2017-07-21T00:00:21.993Z,0
2017-07-21T00:01:21.672Z,0
2017-07-21T00:02:21.648Z,0
2017-07-21T00:03:21.638Z,0
2017-07-21T00:04:21.610Z,0
2017-07-21T00:05:21.637Z,0
2017-07-21T00:06:21.569Z,0
2017-07-21T00:07:21.560Z,0
2017-07-21T00:08:21.534Z,0
2017-07-21T00:09:21.506Z,0
2017-07-21T00:10:21.488Z,0
2017-07-21T00:11:21.571Z,0
2017-07-21T00:12:21.563Z,0
2017-07-21T00:13:21.447Z,0
2017-07-21T00:14:21.416Z,0
2017-07-21T00:15:21.396Z,0
2017-07-21T00:16:21.423Z,0
2017-07-21T00:17:21.356Z,0
2017-07-21T00:18:21.328Z,0
2017-07-21T00:19:21.311Z,0
2017-07-21T00:20:20.986Z,0
2017-07-21T00:21:21.270Z,0
2017-07-21T00:22:21.436Z,0
2017-07-21T00:23:21.431Z,0
2017-07-21T00:24:21.124Z,0
2017-07-21T00:25:20.915Z,0
2017-07-21T00:26:21.229Z,0
2017-07-21T00:27:20.854Z,0
2017-07-21T00:28:20.888Z,0
2017-07-21T00:29:21.106Z,0
2017-07-21T00:30:21.088Z,0
2017-07-21T00:31:21.067Z,0
2017-07-21T00:32:21.099Z,0
2017-07-21T00:33:21.032Z,0
2017-07-21T00:34:21.003Z,0
2017-07-21T00:35:21.044Z,0
2017-07-21T00:36:20.965Z,0
2017-07-21T00:37:20.951Z,0
2017-07-21T00:38:20.930Z,0
2017-07-21T00:39:20.602Z,0
2017-07-21T00:40:20.894Z,0
2017-07-21T00:41:20.868Z,0
2017-07-21T00:42:20.856Z,0
2017-07-21T00:43:20.822Z,0
2017-07-21T00:44:20.809Z,0
2017-07-21T00:45:20.783Z,0
2017-07-21T00:46:20.769Z,0
2017-07-21T00:47:20.444Z,0
2017-07-21T00:48:20.724Z,0
2017-07-21T00:49:20.790Z,0
2017-07-21T00:50:20.747Z,0
2017-07-21T00:51:20.674Z,0
2017-07-21T00:52:20.648Z,0
2017-07-21T00:53:20.622Z,0
2017-07-21T00:54:20.610Z,0
2017-07-21T00:55:20.585Z,0
2017-07-21T00:56:20.562Z,0
2017-07-21T00:57:20.537Z,0
2017-07-21T00:58:20.527Z,0
2017-07-21T00:59:20.500Z,0
2017-07-21T01:00:20.503Z,0
2017-07-21T01:01:20.460Z,0
2017-07-21T01:02:20.448Z,0
2017-07-21T01:03:20.151Z,0
2017-07-21T01:04:20.403Z,0
2017-07-21T01:05:20.075Z,0
2017-07-21T01:06:20.361Z,0
2017-07-21T01:07:20.046Z,0
2017-07-21T01:08:20.329Z,0
2017-07-21T01:09:20.301Z,0
2017-07-21T01:10:20.273Z,0
2017-07-21T01:11:20.566Z,0
2017-07-21T01:12:20.238Z,0
2017-07-21T01:13:20.271Z,0
2017-07-21T01:14:20.251Z,0
2017-07-21T01:15:20.177Z,0
2017-07-21T01:16:20.164Z,0
2017-07-21T01:17:20.134Z,0
2017-07-21T01:18:20.121Z,0
2017-07-21T01:19:20.094Z,0
2017-07-21T01:20:20.071Z,0
2017-07-21T01:21:20.057Z,0
2017-07-21T01:22:20.045Z,0
2017-07-21T01:23:19.715Z,0
2017-07-21T01:24:19.690Z,0
2017-07-21T01:25:19.979Z,0
2017-07-21T01:26:19.953Z,0
2017-07-21T01:27:19.931Z,0
2017-07-21T01:28:19.908Z,0
2017-07-21T01:29:19.892Z,0
2017-07-21T01:30:19.873Z,0
2017-07-21T01:31:19.856Z,0
2017-07-21T01:32:20.885Z,0
2017-07-21T01:33:19.817Z,0
2017-07-21T01:34:19.786Z,0
2017-07-21T01:35:19.776Z,0
2017-07-21T01:36:19.754Z,0
2017-07-21T01:37:19.724Z,0
2017-07-21T01:38:19.705Z,0
2017-07-21T01:39:19.682Z,0
2017-07-21T01:40:19.666Z,0
2017-07-21T01:41:19.341Z,0
2017-07-21T01:42:19.684Z,0
2017-07-21T01:43:19.310Z,0
2017-07-21T01:44:19.643Z,0
2017-07-21T01:45:19.562Z,0
2017-07-21T01:46:19.549Z,0
2017-07-21T01:47:19.520Z,0
2017-07-21T01:48:19.552Z,0
2017-07-21T01:49:19.529Z,0
2017-07-21T01:50:19.456Z,0
2017-07-21T01:51:19.491Z,0
2017-07-21T01:52:19.422Z,0
2017-07-21T01:53:19.402Z,0
2017-07-21T01:54:19.071Z,0
2017-07-21T01:55:19.364Z,0
2017-07-21T01:56:19.334Z,0
2017-07-21T01:57:19.321Z,0
2017-07-21T01:58:19.296Z,0
2017-07-21T01:59:19.273Z,0
2017-07-21T02:00:19.306Z,0
2017-07-21T02:01:19.289Z,0
2017-07-21T02:02:18.917Z,0
2017-07-21T02:03:19.190Z,0
2017-07-21T02:04:19.173Z,0
2017-07-21T02:05:19.155Z,0
2017-07-21T02:06:19.134Z,0
2017-07-21T02:07:19.213Z,0
2017-07-21T02:08:19.142Z,0
2017-07-21T02:09:18.771Z,0
2017-07-21T02:10:18.788Z,0
2017-07-21T02:11:19.033Z,0
2017-07-21T02:12:18.704Z,0
2017-07-21T02:13:18.686Z,0
2017-07-21T02:14:18.965Z,0
2017-07-21T02:15:18.944Z,0
2017-07-21T02:16:18.924Z,0
2017-07-21T02:17:18.903Z,0
2017-07-21T02:18:18.882Z,0
2017-07-21T02:19:18.561Z,0
2017-07-21T02:20:18.845Z,0
2017-07-21T02:21:18.825Z,0
2017-07-21T02:22:18.801Z,0
2017-07-21T02:23:18.786Z,0
2017-07-21T02:24:18.762Z,0
2017-07-21T02:25:18.741Z,0
2017-07-21T02:26:18.731Z,0
2017-07-21T02:27:18.705Z,0
2017-07-21T02:28:18.685Z,0
2017-07-21T02:29:18.653Z,0
2017-07-21T02:30:18.644Z,0
2017-07-21T02:31:18.320Z,0
2017-07-21T02:32:18.596Z,0
2017-07-21T02:33:18.582Z,0
2017-07-21T02:34:18.603Z,0
2017-07-21T02:35:18.539Z,0
2017-07-21T02:36:18.548Z,0
2017-07-21T02:37:18.491Z,0
2017-07-21T02:38:18.173Z,0
2017-07-21T02:39:18.502Z,0
2017-07-21T02:40:18.486Z,0
2017-07-21T02:41:18.418Z,0
2017-07-21T02:42:18.135Z,0
2017-07-21T02:43:17.768Z,0
2017-07-21T02:44:18.351Z,0
2017-07-21T02:45:18.026Z,0
2017-07-21T02:46:18.310Z,0
2017-07-21T02:47:17.986Z,0
2017-07-21T02:48:18.320Z,0
2017-07-21T02:49:18.249Z,0
2017-07-21T02:50:18.218Z,0
2017-07-21T02:51:18.206Z,4
2017-07-21T02:52:18.181Z,4
2017-07-21T02:53:18.159Z,4
2017-07-21T02:54:18.174Z,0
2017-07-21T02:55:18.116Z,0
2017-07-21T02:56:18.106Z,4
2017-07-21T02:57:18.081Z,4
2017-07-21T02:58:18.058Z,4
2017-07-21T02:59:17.729Z,4
2017-07-21T03:00:18.063Z,8
2017-07-21T03:01:17.994Z,4
2017-07-21T03:02:17.722Z,8
2017-07-21T03:03:17.955Z,8
2017-07-21T03:04:17.932Z,8
2017-07-21T03:05:17.912Z,12
2017-07-21T03:06:17.590Z,12
2017-07-21T03:07:17.873Z,16
2017-07-21T03:08:17.847Z,12
2017-07-21T03:09:17.828Z,16
2017-07-21T03:10:17.808Z,20
2017-07-21T03:11:17.794Z,24
2017-07-21T03:12:17.774Z,28
2017-07-21T03:13:17.794Z,32
2017-07-21T03:14:17.728Z,32
2017-07-21T03:15:17.701Z,40
2017-07-21T03:16:17.385Z,40
2017-07-21T03:17:17.660Z,48
2017-07-21T03:18:17.642Z,56
2017-07-21T03:19:17.316Z,60
2017-07-21T03:20:17.293Z,64
2017-07-21T03:21:17.574Z,72
2017-07-21T03:22:17.553Z,80
2017-07-21T03:23:16.935Z,92
2017-07-21T03:24:17.519Z,100
2017-07-21T03:25:17.497Z,112
2017-07-21T03:26:17.534Z,124
2017-07-21T03:27:17.453Z,136
2017-07-21T03:28:17.438Z,148
2017-07-21T03:29:17.417Z,164
2017-07-21T03:30:17.401Z,180
2017-07-21T03:31:17.379Z,196
2017-07-21T03:32:17.048Z,212
2017-07-21T03:33:17.329Z,232
2017-07-21T03:34:17.353Z,252
2017-07-21T03:35:16.993Z,272
2017-07-21T03:36:17.275Z,296
2017-07-21T03:37:17.245Z,320
2017-07-21T03:38:16.919Z,344
2017-07-21T03:39:17.200Z,368
2017-07-21T03:40:17.188Z,400
2017-07-21T03:41:17.163Z,432
2017-07-21T03:42:17.147Z,464
2017-07-21T03:43:17.123Z,500
2017-07-21T03:44:17.100Z,532
2017-07-21T03:45:17.078Z,568
2017-07-21T03:46:17.063Z,612
2017-07-21T03:47:17.033Z,656
2017-07-21T03:48:17.019Z,704
2017-07-21T03:49:16.998Z,760
2017-07-21T03:50:16.974Z,808
2017-07-21T03:51:16.956Z,860
2017-07-21T03:52:16.928Z,912
2017-07-21T03:53:16.920Z,960
2017-07-21T03:54:16.895Z,1012
2017-07-21T03:55:16.924Z,1068
2017-07-21T03:56:16.845Z,1116
2017-07-21T03:57:16.526Z,1160
2017-07-21T03:58:16.807Z,1208
2017-07-21T03:59:16.790Z,1256
2017-07-21T04:00:16.770Z,1312
2017-07-21T04:01:16.451Z,1372
2017-07-21T04:02:16.732Z,1440
2017-07-21T04:03:16.716Z,1528
2017-07-21T04:04:16.687Z,1616
2017-07-21T04:05:17.926Z,1724
2017-07-21T04:06:16.645Z,1872
2017-07-21T04:07:16.324Z,2044
2017-07-21T04:08:16.604Z,2224
2017-07-21T04:09:16.596Z,2428
2017-07-21T04:10:16.556Z,2676
2017-07-21T04:11:16.553Z,3000
2017-07-21T04:12:16.548Z,3340
2017-07-21T04:13:16.508Z,3676
2017-07-21T04:14:16.485Z,3988
2017-07-21T04:15:16.455Z,4240
2017-07-21T04:16:16.652Z,4456
2017-07-21T04:17:16.125Z,4668
2017-07-21T04:18:16.440Z,4864
2017-07-21T04:19:16.089Z,5000
2017-07-21T04:20:16.600Z,5156
2017-07-21T04:21:16.331Z,5316
2017-07-21T04:22:16.317Z,5224
2017-07-21T04:23:15.992Z,5176
2017-07-21T04:24:16.275Z,5512
2017-07-21T04:25:16.256Z,5744
2017-07-21T04:26:16.231Z,5832
2017-07-21T04:27:16.219Z,6004
2017-07-21T04:28:16.202Z,5832
2017-07-21T04:29:16.180Z,5728
2017-07-21T04:30:16.148Z,6224
2017-07-21T04:31:16.158Z,6380
2017-07-21T04:32:15.817Z,6012
2017-07-21T04:33:16.092Z,6384
2017-07-21T04:34:16.075Z,6948
2017-07-21T04:35:16.067Z,6916
2017-07-21T04:36:16.036Z,6436
2017-07-21T04:37:16.030Z,6048
2017-07-21T04:38:16.044Z,5808
2017-07-21T04:39:15.978Z,5604
2017-07-21T04:40:16.002Z,6468
2017-07-21T04:41:15.633Z,7796
2017-07-21T04:42:15.635Z,8284
2017-07-21T04:43:15.954Z,8444
2017-07-21T04:44:15.569Z,8656
2017-07-21T04:45:15.868Z,8840
2017-07-21T04:46:15.836Z,8928
2017-07-21T04:47:15.526Z,8808
2017-07-21T04:48:15.808Z,8644
2017-07-21T04:49:15.779Z,8912
2017-07-21T04:50:15.775Z,9580
2017-07-21T04:51:15.744Z,9776
2017-07-21T04:52:15.779Z,10008
2017-07-21T04:53:15.720Z,10208
2017-07-21T04:54:15.086Z,10424
2017-07-21T04:55:15.692Z,10456
2017-07-21T04:56:15.649Z,9988
2017-07-21T04:57:15.654Z,10756
2017-07-21T04:58:15.612Z,11088
2017-07-21T04:59:15.592Z,11168
2017-07-21T05:00:15.572Z,11224
2017-07-21T05:01:15.569Z,11300
2017-07-21T05:02:15.544Z,11384
2017-07-21T05:03:15.521Z,11388
2017-07-21T05:04:15.534Z,11456
2017-07-21T05:05:15.189Z,11572
2017-07-21T05:06:15.464Z,11680
2017-07-21T05:07:15.454Z,11748
2017-07-21T05:08:15.430Z,11804
2017-07-21T05:09:15.421Z,11908
2017-07-21T05:10:15.391Z,12028
2017-07-21T05:11:15.432Z,12096
2017-07-21T05:12:15.056Z,12216
2017-07-21T05:13:15.335Z,12332
2017-07-21T05:14:15.342Z,12372
2017-07-21T05:15:15.311Z,12004
2017-07-21T05:16:15.290Z,12816
2017-07-21T05:17:15.280Z,12708
2017-07-21T05:18:14.954Z,12888
2017-07-21T05:19:15.239Z,13272
2017-07-21T05:20:15.228Z,13304
2017-07-21T05:21:15.204Z,13216
2017-07-21T05:22:15.191Z,11292
2017-07-21T05:23:15.175Z,12048
2017-07-21T05:24:14.850Z,13980
2017-07-21T05:25:15.143Z,14272
2017-07-21T05:26:15.118Z,14528
2017-07-21T05:27:15.109Z,14656
2017-07-21T05:28:15.079Z,14784
2017-07-21T05:29:14.818Z,14752
2017-07-21T05:30:15.106Z,14592
2017-07-21T05:31:15.052Z,15008
2017-07-21T05:32:15.018Z,15456
2017-07-21T05:33:15.002Z,15552
2017-07-21T05:34:14.994Z,15456
2017-07-21T05:35:15.028Z,15648
2017-07-21T05:36:14.653Z,15840
2017-07-21T05:37:14.942Z,15968
2017-07-21T05:38:14.974Z,14912
2017-07-21T05:39:14.910Z,15616
2017-07-21T05:40:14.594Z,15872
2017-07-21T05:41:14.944Z,16448
2017-07-21T05:42:14.857Z,16800
2017-07-21T05:43:14.846Z,16512
2017-07-21T05:44:14.826Z,17920
2017-07-21T05:45:14.823Z,18240
2017-07-21T05:46:14.800Z,18016
2017-07-21T05:47:14.480Z,17728
2017-07-21T05:48:14.469Z,18080
2017-07-21T05:49:14.755Z,18304
2017-07-21T05:50:14.788Z,18400
2017-07-21T05:51:14.409Z,18464
2017-07-21T05:52:14.754Z,18464
2017-07-21T05:53:14.697Z,18368
2017-07-21T05:54:14.674Z,18656
2017-07-21T05:55:14.658Z,19136
2017-07-21T05:56:14.645Z,19232
2017-07-21T05:57:14.632Z,19456
2017-07-21T05:58:14.613Z,19392
2017-07-21T05:59:14.649Z,19424
2017-07-21T06:00:14.582Z,19680
2017-07-21T06:01:14.786Z,19392
2017-07-21T06:02:14.556Z,19872
2017-07-21T06:03:14.535Z,19744
2017-07-21T06:04:14.528Z,20384
2017-07-21T06:05:14.510Z,20384
2017-07-21T06:06:14.497Z,19904
2017-07-21T06:07:14.487Z,20352
2017-07-21T06:08:14.474Z,21888
2017-07-21T06:09:14.165Z,22208
2017-07-21T06:10:14.444Z,21216
2017-07-21T06:11:14.483Z,21824
2017-07-21T06:12:14.421Z,23040
2017-07-21T06:13:14.394Z,23232
2017-07-21T06:14:14.383Z,23360
2017-07-21T06:15:14.374Z,24928
2017-07-21T06:16:14.361Z,26048
2017-07-21T06:17:14.400Z,25920
2017-07-21T06:18:14.340Z,24224
2017-07-21T06:19:14.326Z,24192
2017-07-21T06:20:14.308Z,24704
2017-07-21T06:21:14.288Z,24736
2017-07-21T06:22:14.272Z,25024
2017-07-21T06:23:14.295Z,26048
2017-07-21T06:24:14.249Z,27232
2017-07-21T06:25:14.238Z,27296
2017-07-21T06:26:14.233Z,27232
2017-07-21T06:27:14.220Z,24416
2017-07-21T06:28:14.200Z,27264
2017-07-21T06:29:14.190Z,24992
2017-07-21T06:30:14.188Z,25472
2017-07-21T06:31:14.169Z,25376
2017-07-21T06:32:14.201Z,25504
2017-07-21T06:33:14.143Z,25824
2017-07-21T06:34:14.138Z,26656
2017-07-21T06:35:13.815Z,27072
2017-07-21T06:36:14.107Z,26528
2017-07-21T06:37:14.092Z,25984
2017-07-21T06:38:14.078Z,25248
2017-07-21T06:39:13.769Z,25792
2017-07-21T06:40:14.094Z,27840
2017-07-21T06:41:14.047Z,28672
2017-07-21T06:42:14.035Z,29664
2017-07-21T06:43:14.025Z,31424
2017-07-21T06:44:14.021Z,31712
2017-07-21T06:45:13.389Z,31520
2017-07-21T06:46:13.985Z,32832
2017-07-21T06:47:13.978Z,34240
2017-07-21T06:48:13.956Z,33472
2017-07-21T06:49:13.649Z,33248
2017-07-21T06:50:13.944Z,33440
2017-07-21T06:51:13.926Z,35264
2017-07-21T06:52:13.922Z,34912
2017-07-21T06:53:13.912Z,36160
2017-07-21T06:54:13.894Z,36160
2017-07-21T06:55:13.886Z,32160
2017-07-21T06:56:13.872Z,34432
2017-07-21T06:57:13.859Z,36672
2017-07-21T06:58:13.853Z,36288
2017-07-21T06:59:13.841Z,33056
2017-07-21T07:00:13.825Z,33344
2017-07-21T07:01:13.832Z,34656
2017-07-21T07:02:13.828Z,35968
2017-07-21T07:03:13.818Z,33152
2017-07-21T07:04:13.791Z,33568
2017-07-21T07:05:13.776Z,34688
2017-07-21T07:06:14.013Z,39328
2017-07-21T07:07:13.755Z,41440
2017-07-21T07:08:13.750Z,42240
2017-07-21T07:09:13.732Z,39520
2017-07-21T07:10:13.724Z,37344
2017-07-21T07:11:13.709Z,36384
2017-07-21T07:12:13.711Z,35904
2017-07-21T07:13:13.704Z,32832
2017-07-21T07:14:13.690Z,30528
2017-07-21T07:15:13.677Z,36448
2017-07-21T07:16:13.659Z,40000
2017-07-21T07:17:13.654Z,41536
2017-07-21T07:18:13.648Z,40256
2017-07-21T07:19:13.635Z,38592
2017-07-21T07:20:13.628Z,38592
2017-07-21T07:21:13.625Z,38624
2017-07-21T07:22:13.657Z,38336
2017-07-21T07:23:13.601Z,36192
2017-07-21T07:24:13.587Z,32960
2017-07-21T07:25:13.594Z,31392
2017-07-21T07:26:13.575Z,34912
2017-07-21T07:27:13.579Z,37824
2017-07-21T07:28:13.610Z,40736
2017-07-21T07:29:13.556Z,42528
2017-07-21T07:30:13.599Z,43072
2017-07-21T07:31:13.231Z,41984
2017-07-21T07:32:13.526Z,42496
2017-07-21T07:33:13.516Z,42816
2017-07-21T07:34:13.512Z,42944
2017-07-21T07:35:15.105Z,42016
2017-07-21T07:36:13.482Z,41568
2017-07-21T07:37:13.191Z,43200
2017-07-21T07:38:13.479Z,45472
2017-07-21T07:39:13.157Z,44864
2017-07-21T07:40:13.467Z,43296
2017-07-21T07:41:13.494Z,40352
2017-07-21T07:42:13.449Z,38944
2017-07-21T07:43:13.425Z,39584
2017-07-21T07:44:13.421Z,41984
2017-07-21T07:45:13.117Z,45088
2017-07-21T07:46:13.406Z,46016
2017-07-21T07:47:13.400Z,46240
2017-07-21T07:48:13.388Z,45344
2017-07-21T07:49:13.384Z,46176
2017-07-21T07:50:13.381Z,49120
2017-07-21T07:51:13.380Z,50336
2017-07-21T07:52:13.365Z,52416
2017-07-21T07:53:13.364Z,54176
2017-07-21T07:54:13.348Z,54336
2017-07-21T07:55:13.343Z,55168
2017-07-21T07:56:13.343Z,55360
2017-07-21T07:57:13.326Z,56864
2017-07-21T07:58:13.326Z,57152
2017-07-21T07:59:13.324Z,55680
2017-07-21T08:00:13.307Z,54240
2017-07-21T08:01:13.006Z,54048
2017-07-21T08:02:13.344Z,54656
2017-07-21T08:03:13.289Z,56128
2017-07-21T08:04:13.415Z,56608
2017-07-21T08:05:13.296Z,58336
2017-07-21T08:06:13.257Z,57440
2017-07-21T08:07:13.320Z,55360
2017-07-21T08:08:12.955Z,52576
2017-07-21T08:09:13.312Z,50368
2017-07-21T08:10:13.237Z,51264
2017-07-21T08:11:13.247Z,54976
2017-07-21T08:12:13.284Z,57696
2017-07-21T08:13:12.927Z,60416
2017-07-21T08:14:13.216Z,61088
2017-07-21T08:15:13.465Z,60000
2017-07-21T08:16:13.204Z,59968
2017-07-21T08:17:13.204Z,62272
2017-07-21T08:18:13.190Z,60672
2017-07-21T08:19:12.885Z,62848
2017-07-21T08:20:13.174Z,59968
2017-07-21T08:21:13.170Z,56160
2017-07-21T08:22:12.862Z,23296
2017-07-21T08:23:12.850Z,52736
2017-07-21T08:24:13.154Z,51520
2017-07-21T08:25:13.440Z,53600
2017-07-21T08:26:13.146Z,55328
2017-07-21T08:27:13.126Z,55456
2017-07-21T08:28:13.124Z,54368
2017-07-21T08:29:13.125Z,53184
2017-07-21T08:30:13.111Z,51136
2017-07-21T08:31:12.893Z,51552
2017-07-21T08:32:13.110Z,50976
2017-07-21T08:33:13.113Z,49088
2017-07-21T08:34:13.137Z,47616
2017-07-21T08:35:12.788Z,46560
2017-07-21T08:36:13.125Z,48288
2017-07-21T08:37:13.063Z,51328
2017-07-21T08:38:13.087Z,54240
2017-07-21T08:39:13.055Z,56320
2017-07-21T08:40:12.748Z,57568
2017-07-21T08:41:13.050Z,60032
2017-07-21T08:42:13.057Z,62784
2017-07-21T08:43:13.046Z,63520
2017-07-21T08:44:13.042Z,66944
2017-07-21T08:45:13.024Z,68704
2017-07-21T08:46:13.023Z,74336
2017-07-21T08:47:13.016Z,76160
2017-07-21T08:48:12.718Z,73504
2017-07-21T08:49:13.005Z,75040
2017-07-21T08:50:12.990Z,72064
2017-07-21T08:51:13.235Z,74720
2017-07-21T08:52:12.971Z,81376
2017-07-21T08:53:12.976Z,83616
2017-07-21T08:54:12.674Z,80640
2017-07-21T08:55:12.964Z,74080
2017-07-21T08:56:12.953Z,69248
2017-07-21T08:57:12.953Z,66304
2017-07-21T08:58:12.960Z,65696
2017-07-21T08:59:12.949Z,63968
2017-07-21T09:00:12.937Z,64800
2017-07-21T09:01:12.983Z,65024
2017-07-21T09:02:12.328Z,65952
2017-07-21T09:03:12.920Z,65376
2017-07-21T09:04:12.919Z,63456
2017-07-21T09:05:12.931Z,61344
2017-07-21T09:06:12.631Z,64736
2017-07-21T09:07:12.903Z,66176
2017-07-21T09:08:12.893Z,69728
2017-07-21T09:09:12.937Z,73216
2017-07-21T09:10:12.588Z,73792
2017-07-21T09:11:12.888Z,73408
2017-07-21T09:12:12.870Z,73568
2017-07-21T09:13:12.861Z,70016
2017-07-21T09:14:12.859Z,62048
2017-07-21T09:15:12.859Z,62112
2017-07-21T09:16:12.839Z,59104
2017-07-21T09:17:13.103Z,58400
2017-07-21T09:18:12.842Z,59744
2017-07-21T09:19:12.527Z,63200
2017-07-21T09:20:12.840Z,67680
2017-07-21T09:21:12.843Z,72352
2017-07-21T09:22:12.828Z,73472
2017-07-21T09:23:12.816Z,72928
2017-07-21T09:24:12.805Z,67552
2017-07-21T09:25:12.812Z,64000
2017-07-21T09:26:13.099Z,59840
2017-07-21T09:27:12.795Z,57216
2017-07-21T09:28:12.783Z,55136
2017-07-21T09:29:12.790Z,54240
2017-07-21T09:30:12.776Z,56800
2017-07-21T09:31:12.780Z,63488
2017-07-21T09:32:12.462Z,69632
2017-07-21T09:33:12.756Z,73408
2017-07-21T09:34:12.761Z,74656
2017-07-21T09:35:12.748Z,72960
2017-07-21T09:36:12.738Z,72384
2017-07-21T09:37:12.693Z,72704
2017-07-21T09:38:12.980Z,73728
2017-07-21T09:39:12.719Z,72960
2017-07-21T09:40:12.711Z,73312
2017-07-21T09:41:12.710Z,69856
2017-07-21T09:42:12.710Z,65280
2017-07-21T09:43:12.698Z,62560
2017-07-21T09:44:12.690Z,61696
2017-07-21T09:45:12.437Z,64128
2017-07-21T09:46:12.382Z,68128
2017-07-21T09:47:12.674Z,71936
2017-07-21T09:48:12.673Z,75424
2017-07-21T09:49:12.681Z,75968
2017-07-21T09:50:12.671Z,72960
2017-07-21T09:51:12.710Z,68672
2017-07-21T09:52:12.654Z,68960
2017-07-21T09:53:12.647Z,69792
2017-07-21T09:54:12.347Z,74080
2017-07-21T09:55:12.639Z,79808
2017-07-21T09:56:12.378Z,84000
2017-07-21T09:57:12.625Z,84736
2017-07-21T09:58:12.625Z,83392
2017-07-21T09:59:12.620Z,77600
2017-07-21T10:00:12.608Z,71520
2017-07-21T10:01:12.674Z,67872
2017-07-21T10:02:12.605Z,67040
2017-07-21T10:03:12.291Z,71616
2017-07-21T10:04:12.605Z,78720
2017-07-21T10:05:12.247Z,84032
2017-07-21T10:06:12.584Z,84640
2017-07-21T10:07:12.569Z,86240
2017-07-21T10:08:12.588Z,84160
2017-07-21T10:09:12.558Z,81760
2017-07-21T10:10:12.550Z,82080
2017-07-21T10:11:12.775Z,82336
2017-07-21T10:12:12.545Z,82272
2017-07-21T10:13:12.549Z,83712
2017-07-21T10:14:12.595Z,84544
2017-07-21T10:15:12.527Z,86240
2017-07-21T10:16:12.524Z,87936
2017-07-21T10:17:12.576Z,87328
2017-07-21T10:18:12.218Z,85568
2017-07-21T10:19:12.517Z,84960
2017-07-21T10:20:12.499Z,79648
2017-07-21T10:21:12.494Z,76608
2017-07-21T10:22:12.554Z,78016
2017-07-21T10:23:12.492Z,82080
2017-07-21T10:24:12.180Z,85824
2017-07-21T10:25:12.475Z,86368
2017-07-21T10:26:12.469Z,87936
2017-07-21T10:27:12.517Z,84032
2017-07-21T10:28:12.163Z,80480
2017-07-21T10:29:12.457Z,77920
2017-07-21T10:30:12.449Z,77920
2017-07-21T10:31:12.452Z,78912
2017-07-21T10:32:12.438Z,82592
2017-07-21T10:33:12.437Z,84736
2017-07-21T10:34:12.430Z,85184
2017-07-21T10:35:12.413Z,9728
2017-07-21T10:36:12.455Z,86880
2017-07-21T10:37:12.402Z,87840
2017-07-21T10:38:12.390Z,91616
2017-07-21T10:39:12.388Z,94752
2017-07-21T10:40:12.080Z,98688
2017-07-21T10:41:12.379Z,99616
2017-07-21T10:42:12.386Z,95936
2017-07-21T10:43:12.371Z,94400
2017-07-21T10:44:12.378Z,64768
2017-07-21T10:45:12.353Z,97536
2017-07-21T10:46:12.338Z,101152
2017-07-21T10:47:12.039Z,100160
2017-07-21T10:48:12.403Z,99328
2017-07-21T10:49:12.318Z,94976
2017-07-21T10:50:26.932Z,92768
2017-07-21T10:51:12.367Z,92064
2017-07-21T10:52:11.708Z,81088
2017-07-21T10:53:12.306Z,81152
2017-07-21T10:54:12.002Z,98048
2017-07-21T10:55:12.291Z,100064
2017-07-21T10:56:12.281Z,97888
2017-07-21T10:57:13.022Z,97312
2017-07-21T10:58:12.412Z,94432
2017-07-21T10:59:12.773Z,94944
2017-07-21T11:00:13.715Z,95680
2017-07-21T11:01:13.216Z,93984
2017-07-21T11:02:12.710Z,92352
2017-07-21T11:03:13.275Z,91840
2017-07-21T11:04:13.396Z,93312
2017-07-21T11:05:12.039Z,96192
2017-07-21T11:06:12.282Z,100096
2017-07-21T11:07:12.209Z,103712
2017-07-21T11:08:11.913Z,104928
2017-07-21T11:09:12.270Z,100672
2017-07-21T11:10:12.242Z,97504
2017-07-21T11:11:12.198Z,96640
2017-07-21T11:12:12.192Z,98176
2017-07-21T11:13:12.202Z,100096
2017-07-21T11:14:12.177Z,104800
2017-07-21T11:15:12.172Z,105792
2017-07-21T11:16:12.183Z,106592
2017-07-21T11:17:12.170Z,98144
2017-07-21T11:18:11.873Z,57728
2017-07-21T11:19:11.845Z,11784
2017-07-21T11:20:11.882Z,6912
2017-07-21T11:21:12.164Z,6904
2017-07-21T11:22:12.119Z,6932
2017-07-21T11:23:12.130Z,6788
2017-07-21T11:24:12.137Z,6684
2017-07-21T11:25:12.119Z,6632
2017-07-21T11:26:11.807Z,6660
2017-07-21T11:27:12.165Z,6692
2017-07-21T11:28:11.811Z,6696
2017-07-21T11:29:12.096Z,6660
2017-07-21T11:30:12.078Z,6792
2017-07-21T11:31:11.786Z,6968
2017-07-21T11:32:12.111Z,6960
2017-07-21T11:33:12.113Z,6688
2017-07-21T11:34:11.472Z,6540
2017-07-21T11:35:11.740Z,6448
2017-07-21T11:36:12.032Z,6396
2017-07-21T11:37:11.984Z,6372
2017-07-21T11:38:11.983Z,6360
2017-07-21T11:39:11.962Z,6344
2017-07-21T11:40:11.709Z,6388
2017-07-21T11:41:11.933Z,6360
2017-07-21T11:42:11.911Z,6384
2017-07-21T11:43:11.898Z,6260
2017-07-21T11:44:11.582Z,6192
2017-07-21T11:45:11.872Z,6192
2017-07-21T11:46:11.852Z,6228
2017-07-21T11:47:11.847Z,6204
2017-07-21T11:48:11.820Z,6200
2017-07-21T11:49:11.506Z,6144
2017-07-21T11:50:11.788Z,6036
2017-07-21T11:51:11.784Z,5976
2017-07-21T11:52:11.762Z,5928
2017-07-21T11:53:11.816Z,5880
2017-07-21T11:54:11.788Z,5840
2017-07-21T11:55:11.716Z,5720
2017-07-21T11:56:11.721Z,5836
2017-07-21T11:57:11.697Z,5820
2017-07-21T11:58:11.368Z,5864
2017-07-21T11:59:11.665Z,5892
2017-07-21T12:00:11.642Z,5916
2017-07-21T12:01:11.691Z,5916
2017-07-21T12:02:11.670Z,5868
2017-07-21T12:03:11.590Z,5816
2017-07-21T12:04:11.590Z,5800
2017-07-21T12:05:11.571Z,5804
2017-07-21T12:06:11.561Z,5768
2017-07-21T12:07:11.229Z,5724
2017-07-21T12:08:11.227Z,5712
2017-07-21T12:09:11.502Z,5644
2017-07-21T12:10:11.200Z,5616
2017-07-21T12:11:11.475Z,5576
2017-07-21T12:12:11.472Z,5516
2017-07-21T12:13:11.481Z,5468
2017-07-21T12:14:11.435Z,5456
2017-07-21T12:15:11.100Z,5424
2017-07-21T12:16:11.388Z,5352
2017-07-21T12:17:11.370Z,5332
2017-07-21T12:18:11.434Z,5328
2017-07-21T12:19:11.338Z,5312
2017-07-21T12:20:11.028Z,5296
2017-07-21T12:21:11.312Z,5344
2017-07-21T12:22:11.296Z,5352
2017-07-21T12:23:11.270Z,5260
2017-07-21T12:24:11.268Z,5172
2017-07-21T12:25:11.246Z,5132
2017-07-21T12:26:11.225Z,5116
2017-07-21T12:27:10.908Z,5152
2017-07-21T12:28:11.233Z,5108
2017-07-21T12:29:10.879Z,5112
2017-07-21T12:30:10.862Z,5120
2017-07-21T12:31:11.143Z,5160
2017-07-21T12:32:11.182Z,5212
2017-07-21T12:33:11.122Z,5196
2017-07-21T12:34:11.111Z,5148
2017-07-21T12:35:11.085Z,4800
2017-07-21T12:36:11.085Z,5136
2017-07-21T12:37:11.046Z,5128
2017-07-21T12:38:11.027Z,5092
2017-07-21T12:39:10.715Z,5068
2017-07-21T12:40:10.684Z,5024
2017-07-21T12:41:10.983Z,5044
2017-07-21T12:42:10.962Z,5020
2017-07-21T12:43:10.965Z,5016
2017-07-21T12:44:10.927Z,4992
2017-07-21T12:45:10.662Z,4956
2017-07-21T12:46:10.889Z,4916
2017-07-21T12:47:10.874Z,4940
2017-07-21T12:48:10.865Z,4988
2017-07-21T12:49:10.850Z,4960
2017-07-21T12:50:10.520Z,4948
2017-07-21T12:51:11.105Z,5008
2017-07-21T12:52:10.486Z,5012
2017-07-21T12:53:10.796Z,5048
2017-07-21T12:54:10.757Z,5032
2017-07-21T12:55:10.742Z,5080
2017-07-21T12:56:10.720Z,5008
2017-07-21T12:57:10.704Z,5060
2017-07-21T12:58:10.695Z,5160
2017-07-21T12:59:10.726Z,5320
2017-07-21T13:00:10.654Z,5372
2017-07-21T13:01:10.343Z,5340
2017-07-21T13:02:10.632Z,5264
2017-07-21T13:03:10.605Z,5312
2017-07-21T13:04:10.594Z,5288
2017-07-21T13:05:10.268Z,5240
2017-07-21T13:06:10.302Z,5252
2017-07-21T13:07:10.537Z,5264
2017-07-21T13:08:10.232Z,5404
2017-07-21T13:09:10.197Z,5504
2017-07-21T13:10:10.494Z,5608
2017-07-21T13:11:10.469Z,5596
2017-07-21T13:12:10.456Z,5580
2017-07-21T13:13:10.151Z,5488
2017-07-21T13:14:10.428Z,5304
2017-07-21T13:15:10.483Z,5232
2017-07-21T13:16:10.391Z,5280
2017-07-21T13:17:10.379Z,5356
2017-07-21T13:18:10.354Z,5380
2017-07-21T13:19:10.345Z,5244
2017-07-21T13:20:10.318Z,5160
2017-07-21T13:21:10.369Z,5124
2017-07-21T13:22:10.298Z,5340
2017-07-21T13:23:10.022Z,5504
2017-07-21T13:24:10.257Z,5416
2017-07-21T13:25:10.292Z,5324
2017-07-21T13:26:09.914Z,5200